Aviation Digital Data Service (ADDS)

Output produced by METARs form (1036 UTC 01 April 2015)
found at http://www.aviationweather.gov/adds/metars/
 
KSPI 010520Z 0106/0206 VRB04KT P6SM SKC 
     FM011400 17008KT P6SM SKC 
     FM011700 18013G23KT P6SM SKC